Weather at Eliporto aereotre

Public forecast

Using degrees Celsius for public forecast. Weather courtesy of forecast.io.

Closest aviation weather report (METAR) to Eliporto aereotre

Closest report is Taranto-Grottaglie "Marcello Arlotta" Airport, 10.9 nm (20.1 km) WNW. Retrieved 2021/10/16 16:50 UTC (1 hour ago):

LIBG 161650Z 31003KT 290V010 9999 SCT040 17/11 Q1015

Closest aviation forecast (TAF) to Eliporto aereotre

Forecast is more than 12 hours old.

Closest forecast is Taranto-Grottaglie "Marcello Arlotta" Airport, 10.9 nm (20.1 km) WNW. Retrieved 2017/11/11 18:24 UTC (4 years ago):

TAF TAF LIBG 111917Z 1118/1206 CNL